createdAt,value
2017-09-27T00:00:58.222Z,6.77
2017-09-27T00:03:25.922Z,10.70
2017-09-27T00:05:53.578Z,9.47
2017-09-27T00:08:21.261Z,8.93
2017-09-27T00:10:49.003Z,8.57
2017-09-27T00:13:16.757Z,8.77
2017-09-27T00:15:44.503Z,8.50
2017-09-27T00:18:12.251Z,7.90
2017-09-27T00:20:39.997Z,8.10
2017-09-27T00:23:07.646Z,9.70
2017-09-27T00:25:35.389Z,9.37
2017-09-27T00:28:03.136Z,8.80
2017-09-27T00:30:30.807Z,10.97
2017-09-27T00:32:58.528Z,10.20
2017-09-27T00:35:26.204Z,10.93
2017-09-27T00:37:53.932Z,10.80
2017-09-27T00:40:21.642Z,8.57
2017-09-27T00:42:49.312Z,10.98
2017-09-27T00:45:17.063Z,9.87
2017-09-27T00:47:44.809Z,12.73
2017-09-27T00:50:12.556Z,10.60
2017-09-27T00:52:40.251Z,10.70
2017-09-27T00:55:08.042Z,11.50
2017-09-27T00:57:35.798Z,11.60
2017-09-27T01:00:03.488Z,10.80
2017-09-27T01:02:31.298Z,11.33
2017-09-27T01:04:59.040Z,11.07
2017-09-27T01:07:26.787Z,10.80
2017-09-27T01:09:54.537Z,11.10
2017-09-27T01:12:22.284Z,10.17
2017-09-27T01:14:50.029Z,9.93
2017-09-27T01:17:17.731Z,11.50
2017-09-27T01:19:45.424Z,11.57
2017-09-27T01:22:13.274Z,11.60
2017-09-27T01:24:41.067Z,10.93
2017-09-27T01:27:08.748Z,13.33
2017-09-27T01:29:36.462Z,12.57
2017-09-27T01:32:04.606Z,12.75
2017-09-27T01:34:32.417Z,11.75
2017-09-27T01:37:00.160Z,13.27
2017-09-27T01:39:27.975Z,12.03
2017-09-27T01:41:55.703Z,12.83
2017-09-27T01:44:23.922Z,12.53
2017-09-27T01:46:51.784Z,13.20
2017-09-27T01:49:19.511Z,11.03
2017-09-27T01:51:47.220Z,11.60
2017-09-27T01:54:14.995Z,11.33
2017-09-27T01:56:42.727Z,10.83
2017-09-27T01:59:10.507Z,12.00
2017-09-27T02:01:38.357Z,11.13
2017-09-27T02:04:06.055Z,10.68
2017-09-27T02:06:33.954Z,9.53
2017-09-27T02:09:01.795Z,12.37
2017-09-27T02:11:29.550Z,11.18
2017-09-27T02:13:57.215Z,11.80
2017-09-27T02:16:24.945Z,8.97
2017-09-27T02:18:52.693Z,9.73
2017-09-27T02:21:20.343Z,10.75
2017-09-27T02:23:48.057Z,12.00
2017-09-27T02:26:15.702Z,12.23
2017-09-27T02:28:43.375Z,11.57
2017-09-27T02:31:11.079Z,11.13
2017-09-27T02:33:38.723Z,9.67
2017-09-27T02:36:06.411Z,11.23
2017-09-27T02:38:34.362Z,12.23
2017-09-27T02:41:02.023Z,11.87
2017-09-27T02:43:29.663Z,13.50
2017-09-27T02:45:57.366Z,14.45
2017-09-27T02:48:25.010Z,13.80
2017-09-27T02:50:52.664Z,13.20
2017-09-27T02:53:20.542Z,13.13
2017-09-27T02:55:48.186Z,13.10
2017-09-27T02:58:15.933Z,13.07
2017-09-27T03:00:43.638Z,13.27
2017-09-27T03:03:11.324Z,13.90
2017-09-27T03:05:38.983Z,10.75
2017-09-27T03:08:07.098Z,10.10
2017-09-27T03:10:34.731Z,13.77
2017-09-27T03:13:02.379Z,12.30
2017-09-27T03:15:30.099Z,13.70
2017-09-27T03:17:57.759Z,11.25
2017-09-27T03:20:25.407Z,12.60
2017-09-27T03:22:53.178Z,11.77
2017-09-27T03:25:20.951Z,11.30
2017-09-27T03:27:48.657Z,12.93
2017-09-27T03:30:16.445Z,10.63
2017-09-27T03:32:44.191Z,11.60
2017-09-27T03:35:12.042Z,13.75
2017-09-27T03:37:40.083Z,13.57
2017-09-27T03:40:07.841Z,13.52
2017-09-27T03:42:35.491Z,14.25
2017-09-27T03:45:03.238Z,13.97
2017-09-27T03:47:30.981Z,14.48
2017-09-27T03:49:58.638Z,13.60
2017-09-27T03:52:26.351Z,14.07
2017-09-27T03:54:54.022Z,14.68
2017-09-27T03:57:21.768Z,15.55
2017-09-27T03:59:49.619Z,16.00
2017-09-27T04:02:17.275Z,15.45
2017-09-27T04:04:45.011Z,15.82
2017-09-27T04:07:12.748Z,15.20
2017-09-27T04:09:40.504Z,15.63
2017-09-27T04:12:08.160Z,16.00
2017-09-27T04:14:35.870Z,15.80
2017-09-27T04:17:03.540Z,14.95
2017-09-27T04:19:31.287Z,15.05
2017-09-27T04:21:59.138Z,13.23
2017-09-27T04:24:26.884Z,15.60
2017-09-27T04:26:54.634Z,16.67
2017-09-27T04:29:22.339Z,15.38
2017-09-27T04:31:50.004Z,13.60
2017-09-27T04:34:17.708Z,16.85
2017-09-27T04:36:45.522Z,16.48
2017-09-27T04:39:13.174Z,15.00
2017-09-27T04:41:40.913Z,14.13
2017-09-27T04:44:08.623Z,15.18
2017-09-27T04:46:36.282Z,15.93
2017-09-27T04:49:03.939Z,13.40
2017-09-27T04:51:31.700Z,14.15
2017-09-27T04:53:59.350Z,16.60
2017-09-27T04:56:27.089Z,15.18
2017-09-27T04:58:54.791Z,13.73
2017-09-27T05:01:22.483Z,13.48
2017-09-27T05:03:50.232Z,14.57
2017-09-27T05:06:18.172Z,17.52
2017-09-27T05:08:45.831Z,18.27
2017-09-27T05:11:13.574Z,15.75
2017-09-27T05:13:41.731Z,14.63
2017-09-27T05:16:09.479Z,17.05
2017-09-27T05:18:37.176Z,15.25
2017-09-27T05:21:04.973Z,13.35
2017-09-27T05:23:32.623Z,14.95
2017-09-27T05:26:00.364Z,14.87
2017-09-27T05:28:28.202Z,15.57
2017-09-27T05:30:55.965Z,14.50
2017-09-27T05:33:23.623Z,15.38
2017-09-27T05:35:51.322Z,14.85
2017-09-27T05:38:19.001Z,17.00
2017-09-27T05:40:46.659Z,14.25
2017-09-27T05:43:14.479Z,15.40
2017-09-27T05:45:42.772Z,15.90
2017-09-27T05:48:10.827Z,14.30
2017-09-27T05:50:38.944Z,14.02
2017-09-27T05:53:06.712Z,14.10
2017-09-27T05:55:34.366Z,15.50
2017-09-27T05:58:02.106Z,14.50
2017-09-27T06:00:29.851Z,14.73
2017-09-27T06:02:57.599Z,14.70
2017-09-27T06:05:25.451Z,14.35
2017-09-27T06:07:53.199Z,15.27
2017-09-27T06:10:20.946Z,13.50
2017-09-27T06:12:48.693Z,12.60
2017-09-27T06:15:16.445Z,12.17
2017-09-27T06:17:44.103Z,12.30
2017-09-27T06:20:11.835Z,12.50
2017-09-27T06:22:39.491Z,11.33
2017-09-27T06:25:07.143Z,12.33
2017-09-27T06:27:35.585Z,12.33
2017-09-27T06:30:03.240Z,11.47
2017-09-27T06:32:30.895Z,9.87
2017-09-27T06:34:58.621Z,10.30
2017-09-27T06:37:26.278Z,10.80
2017-09-27T06:39:54.018Z,10.13
2017-09-27T06:42:21.790Z,10.20
2017-09-27T06:44:49.843Z,10.37
2017-09-27T06:47:17.976Z,9.77
2017-09-27T06:49:45.675Z,11.83
2017-09-27T06:52:13.332Z,11.13
2017-09-27T06:54:41.270Z,11.40
2017-09-27T06:57:09.067Z,11.30
2017-09-27T06:59:36.721Z,11.70
2017-09-27T07:02:04.460Z,12.33
2017-09-27T07:04:32.205Z,11.10
2017-09-27T07:06:59.854Z,12.00
2017-09-27T07:09:27.597Z,10.37
2017-09-27T07:11:55.450Z,11.23
2017-09-27T07:14:23.112Z,11.93
2017-09-27T07:16:50.767Z,11.30
2017-09-27T07:19:18.590Z,11.20
2017-09-27T07:21:46.336Z,12.30
2017-09-27T07:24:14.004Z,11.27
2017-09-27T07:26:42.241Z,10.17
2017-09-27T07:29:10.000Z,9.60
2017-09-27T07:31:37.734Z,10.93
2017-09-27T07:34:05.585Z,12.40
2017-09-27T07:36:33.247Z,9.53
2017-09-27T07:39:00.977Z,10.47
2017-09-27T07:41:28.728Z,11.67
2017-09-27T07:43:56.376Z,10.93
2017-09-27T07:46:24.035Z,9.73
2017-09-27T07:48:52.172Z,11.07
2017-09-27T07:51:19.840Z,10.87
2017-09-27T07:53:47.883Z,9.73
2017-09-27T07:56:15.687Z,13.20
2017-09-27T07:58:43.468Z,12.20
2017-09-27T08:01:11.144Z,13.43
2017-09-27T08:03:39.680Z,11.67
2017-09-27T08:06:07.459Z,13.00
2017-09-27T08:08:35.583Z,13.40
2017-09-27T08:11:03.399Z,12.70
2017-09-27T08:13:31.052Z,13.40
2017-09-27T08:15:58.704Z,13.47
2017-09-27T08:18:26.425Z,10.50
2017-09-27T08:20:54.118Z,12.23
2017-09-27T08:23:21.866Z,13.03
2017-09-27T08:25:49.613Z,11.23
2017-09-27T08:28:17.274Z,14.50
2017-09-27T08:30:44.931Z,13.03
2017-09-27T08:33:13.160Z,13.37
2017-09-27T08:35:40.814Z,14.30
2017-09-27T08:38:08.553Z,13.07
2017-09-27T08:40:36.267Z,16.17
2017-09-27T08:43:04.256Z,14.80
2017-09-27T08:45:31.908Z,14.80
2017-09-27T08:47:59.599Z,15.30
2017-09-27T08:50:27.287Z,15.43
2017-09-27T08:52:55.073Z,15.40
2017-09-27T08:55:23.166Z,16.77
2017-09-27T08:57:50.824Z,18.57
2017-09-27T09:00:18.479Z,17.00
2017-09-27T09:02:46.264Z,17.67
2017-09-27T09:05:14.389Z,19.43
2017-09-27T09:07:42.055Z,19.60
2017-09-27T09:10:10.243Z,19.40
2017-09-27T09:12:37.938Z,17.40
2017-09-27T09:15:05.686Z,20.27
2017-09-27T09:17:33.432Z,20.50
2017-09-27T09:20:01.085Z,20.57
2017-09-27T09:22:28.733Z,20.70
2017-09-27T09:24:56.445Z,18.60
2017-09-27T09:27:24.096Z,20.33
2017-09-27T09:29:51.751Z,18.57
2017-09-27T09:32:19.464Z,20.43
2017-09-27T09:34:47.154Z,23.53
2017-09-27T09:37:14.819Z,21.67
2017-09-27T09:39:43.365Z,19.57
2017-09-27T09:42:11.112Z,22.00
2017-09-27T09:44:38.858Z,21.10
2017-09-27T09:47:06.574Z,19.53
2017-09-27T09:49:34.218Z,19.23
2017-09-27T09:52:01.894Z,17.00
2017-09-27T09:54:29.595Z,17.40
2017-09-27T09:56:57.244Z,18.40
2017-09-27T09:59:24.934Z,16.00
2017-09-27T10:01:52.640Z,17.00
2017-09-27T10:04:20.310Z,16.17
2017-09-27T10:06:47.956Z,15.77
2017-09-27T10:09:15.719Z,16.63
2017-09-27T10:11:43.467Z,16.57
2017-09-27T10:14:11.213Z,16.77
2017-09-27T10:16:38.964Z,16.93
2017-09-27T10:19:06.707Z,14.43
2017-09-27T10:21:34.350Z,14.27
2017-09-27T10:24:02.202Z,13.67
2017-09-27T10:26:29.851Z,13.27
2017-09-27T10:28:57.594Z,12.83
2017-09-27T10:31:25.344Z,11.70
2017-09-27T10:33:52.987Z,12.77
2017-09-27T10:36:20.736Z,10.93
2017-09-27T10:38:48.459Z,11.67
2017-09-27T10:41:16.107Z,12.93
2017-09-27T10:43:43.751Z,10.10
2017-09-27T10:46:11.535Z,10.37
2017-09-27T10:48:39.183Z,10.17
2017-09-27T10:51:06.832Z,10.13
2017-09-27T10:53:35.170Z,10.90
2017-09-27T10:56:02.917Z,11.00
2017-09-27T10:58:30.579Z,11.93
2017-09-27T11:00:58.275Z,11.90
2017-09-27T11:03:26.143Z,11.30
2017-09-27T11:05:53.789Z,10.37
2017-09-27T11:08:21.613Z,9.97
2017-09-27T11:10:49.301Z,10.37
2017-09-27T11:13:17.016Z,10.90
2017-09-27T11:15:44.711Z,10.30
2017-09-27T11:18:12.440Z,11.40
2017-09-27T11:20:40.095Z,11.03
2017-09-27T11:23:07.933Z,11.10
2017-09-27T11:25:35.580Z,9.80
2017-09-27T11:28:03.236Z,13.90
2017-09-27T11:30:30.973Z,13.63
2017-09-27T11:32:58.719Z,13.60
2017-09-27T11:35:26.465Z,15.63
2017-09-27T11:37:54.318Z,14.23
2017-09-27T11:40:22.066Z,16.33
2017-09-27T11:42:49.813Z,14.93
2017-09-27T11:45:17.591Z,15.83
2017-09-27T11:47:45.716Z,15.33
2017-09-27T11:50:13.462Z,13.90
2017-09-27T11:52:41.173Z,13.80
2017-09-27T11:55:08.816Z,15.17
2017-09-27T11:57:36.479Z,16.10
2017-09-27T12:00:04.272Z,14.83
2017-09-27T12:02:32.410Z,18.13
2017-09-27T12:05:00.055Z,16.87
2017-09-27T12:07:27.795Z,18.47
2017-09-27T12:09:55.440Z,15.60
2017-09-27T12:12:23.087Z,15.20
2017-09-27T12:14:50.788Z,13.50
2017-09-27T12:17:18.480Z,17.07
2017-09-27T12:19:46.228Z,18.53
2017-09-27T12:22:13.975Z,17.33
2017-09-27T12:24:41.722Z,15.27
2017-09-27T12:27:09.364Z,13.53
2017-09-27T12:29:37.114Z,12.80
2017-09-27T12:32:04.860Z,13.27
2017-09-27T12:34:32.608Z,14.10
2017-09-27T12:37:00.307Z,13.97
2017-09-27T12:39:28.240Z,14.50
2017-09-27T12:41:56.274Z,16.07
2017-09-27T12:44:24.012Z,16.37
2017-09-27T12:46:51.662Z,13.60
2017-09-27T12:49:19.302Z,11.37
2017-09-27T12:51:47.045Z,13.30
2017-09-27T12:54:14.727Z,12.50
2017-09-27T12:56:42.847Z,13.53
2017-09-27T12:59:10.700Z,11.73
2017-09-27T13:01:38.444Z,13.20
2017-09-27T13:04:06.191Z,15.30
2017-09-27T13:06:33.938Z,13.80
2017-09-27T13:09:01.690Z,13.57
2017-09-27T13:11:29.338Z,12.53
2017-09-27T13:13:57.036Z,14.97
2017-09-27T13:16:24.679Z,12.87
2017-09-27T13:18:52.334Z,13.20
2017-09-27T13:21:20.124Z,13.20
2017-09-27T13:23:47.865Z,10.97
2017-09-27T13:26:15.611Z,9.33
2017-09-27T13:28:43.339Z,10.50
2017-09-27T13:31:11.003Z,7.93
2017-09-27T13:33:38.752Z,7.63
2017-09-27T13:36:06.498Z,8.07
2017-09-27T13:38:34.251Z,7.90
2017-09-27T13:41:01.993Z,6.47
2017-09-27T13:43:29.688Z,5.93
2017-09-27T13:45:57.327Z,6.40
2017-09-27T13:48:25.441Z,7.20
2017-09-27T13:50:53.212Z,6.87
2017-09-27T13:53:20.937Z,5.87
2017-09-27T13:55:48.682Z,5.87
2017-09-27T13:58:16.372Z,6.80
2017-09-27T14:00:44.075Z,6.47
2017-09-27T14:03:11.821Z,5.33
2017-09-27T14:05:39.570Z,4.50
2017-09-27T14:08:07.220Z,5.10
2017-09-27T14:10:34.961Z,5.60
2017-09-27T14:13:02.740Z,6.10
2017-09-27T14:15:30.387Z,6.80
2017-09-27T14:17:58.509Z,6.33
2017-09-27T14:20:26.254Z,6.40
2017-09-27T14:22:54.007Z,6.90
2017-09-27T14:25:21.757Z,8.20
2017-09-27T14:27:49.502Z,6.13
2017-09-27T14:30:17.161Z,9.27
2017-09-27T14:32:44.893Z,9.50
2017-09-27T14:35:12.640Z,10.47
2017-09-27T14:37:40.386Z,11.00
2017-09-27T14:40:08.043Z,10.20
2017-09-27T14:42:35.743Z,11.10
2017-09-27T14:45:03.406Z,9.70
2017-09-27T14:47:31.069Z,9.50
2017-09-27T14:49:58.770Z,11.00
2017-09-27T14:52:26.418Z,13.10
2017-09-27T14:54:54.149Z,12.03
2017-09-27T14:57:22.247Z,13.50
2017-09-27T14:59:50.015Z,13.27
2017-09-27T15:02:17.759Z,13.70
2017-09-27T15:04:45.609Z,13.63
2017-09-27T15:07:13.276Z,15.07
2017-09-27T15:09:40.920Z,15.00
2017-09-27T15:12:08.616Z,13.43
2017-09-27T15:14:36.279Z,13.87
2017-09-27T15:17:04.037Z,14.37
2017-09-27T15:19:31.815Z,12.40
2017-09-27T15:21:59.896Z,12.50
2017-09-27T15:24:27.689Z,15.60
2017-09-27T15:26:55.404Z,17.47
2017-09-27T15:29:23.083Z,15.87
2017-09-27T15:31:50.831Z,15.17
2017-09-27T15:34:18.759Z,17.10
2017-09-27T15:36:46.530Z,19.87
2017-09-27T15:39:14.180Z,19.47
2017-09-27T15:41:41.970Z,19.60
2017-09-27T15:44:09.668Z,20.20
2017-09-27T15:46:37.416Z,17.23
2017-09-27T15:49:05.144Z,17.50
2017-09-27T15:51:32.910Z,21.97
2017-09-27T15:54:00.871Z,19.00
2017-09-27T15:56:28.682Z,19.03
2017-09-27T15:58:56.331Z,19.77
2017-09-27T16:01:23.991Z,20.63
2017-09-27T16:03:51.784Z,21.90
2017-09-27T16:06:19.836Z,23.47
2017-09-27T16:08:47.962Z,21.07
2017-09-27T16:11:15.665Z,19.63
2017-09-27T16:13:43.319Z,19.27
2017-09-27T16:16:11.063Z,21.83
2017-09-27T16:18:38.848Z,20.00
2017-09-27T16:21:06.595Z,22.33
2017-09-27T16:23:34.251Z,21.80
2017-09-27T16:26:02.044Z,23.80
2017-09-27T16:28:29.734Z,18.60
2017-09-27T16:30:57.481Z,21.83
2017-09-27T16:33:25.233Z,22.73
2017-09-27T16:35:52.882Z,24.53
2017-09-27T16:38:20.551Z,20.80
2017-09-27T16:40:48.678Z,20.80
2017-09-27T16:43:16.425Z,20.60
2017-09-27T16:45:44.074Z,19.73
2017-09-27T16:48:11.782Z,16.70
2017-09-27T16:50:39.426Z,20.33
2017-09-27T16:53:07.083Z,21.30
2017-09-27T16:55:34.801Z,24.00
2017-09-27T16:58:02.451Z,20.13
2017-09-27T17:00:30.103Z,20.40
2017-09-27T17:02:57.891Z,23.07
2017-09-27T17:05:25.551Z,20.47
2017-09-27T17:07:53.287Z,22.40
2017-09-27T17:10:20.988Z,17.17
2017-09-27T17:12:48.648Z,21.20
2017-09-27T17:15:16.324Z,17.00
2017-09-27T17:17:44.026Z,22.90
2017-09-27T17:20:11.714Z,19.33
2017-09-27T17:22:39.461Z,20.23
2017-09-27T17:25:07.161Z,21.50
2017-09-27T17:27:34.852Z,22.43
2017-09-27T17:30:02.600Z,23.73
2017-09-27T17:32:30.329Z,21.97
2017-09-27T17:34:57.980Z,21.70
2017-09-27T17:37:25.641Z,22.80
2017-09-27T17:39:53.371Z,21.30
2017-09-27T17:42:21.077Z,21.30
2017-09-27T17:44:48.740Z,23.00
2017-09-27T17:47:16.444Z,21.07
2017-09-27T17:49:44.126Z,22.43
2017-09-27T17:52:11.815Z,22.87
2017-09-27T17:54:39.665Z,20.53
2017-09-27T17:57:07.359Z,18.10
2017-09-27T17:59:35.056Z,22.27
2017-09-27T18:02:02.804Z,20.63
2017-09-27T18:04:36.138Z,18.00
2017-09-27T18:07:09.562Z,20.00
2017-09-27T18:09:42.908Z,19.73
2017-09-27T18:12:22.411Z,20.50
2017-09-27T18:15:04.954Z,19.20
2017-09-27T18:17:32.803Z,21.00
2017-09-27T18:20:00.519Z,21.77
2017-09-27T18:22:28.328Z,21.03
2017-09-27T18:24:56.578Z,21.70
2017-09-27T18:27:24.311Z,20.73
2017-09-27T18:29:52.055Z,21.53
2017-09-27T18:32:19.904Z,21.33
2017-09-27T18:34:47.621Z,22.53
2017-09-27T18:37:15.303Z,22.00
2017-09-27T18:39:43.146Z,18.50
2017-09-27T18:42:10.892Z,21.37
2017-09-27T18:44:38.638Z,19.53
2017-09-27T18:47:06.489Z,21.17
2017-09-27T18:49:34.236Z,23.67
2017-09-27T18:52:01.923Z,23.70
2017-09-27T18:54:29.831Z,24.17
2017-09-27T18:56:57.487Z,22.97
2017-09-27T18:59:25.330Z,20.43
2017-09-27T19:01:53.031Z,19.13
2017-09-27T19:04:20.722Z,22.00
2017-09-27T19:06:48.376Z,21.27
2017-09-27T19:09:16.217Z,21.70
2017-09-27T19:11:43.899Z,21.10
2017-09-27T19:14:11.947Z,20.50
2017-09-27T19:16:40.047Z,21.60
2017-09-27T19:19:07.700Z,22.53
2017-09-27T19:21:35.464Z,20.50
2017-09-27T19:24:03.313Z,22.53
2017-09-27T19:26:30.974Z,23.20
2017-09-27T19:28:58.675Z,20.43
2017-09-27T19:31:26.380Z,24.17
2017-09-27T19:33:54.428Z,20.77
2017-09-27T19:36:22.580Z,20.93
2017-09-27T19:38:50.456Z,20.03
2017-09-27T19:41:19.083Z,21.20
2017-09-27T19:43:46.829Z,21.50
2017-09-27T19:46:14.551Z,19.30
2017-09-27T19:48:42.715Z,20.40
2017-09-27T19:51:10.481Z,22.30
2017-09-27T19:53:38.194Z,20.03
2017-09-27T19:56:05.895Z,21.93
2017-09-27T19:58:33.951Z,23.97
2017-09-27T20:01:01.879Z,18.93
2017-09-27T20:03:29.626Z,20.60
2017-09-27T20:05:57.316Z,20.50
2017-09-27T20:08:25.015Z,22.37
2017-09-27T20:10:52.768Z,19.87
2017-09-27T20:13:20.515Z,18.87
2017-09-27T20:15:48.467Z,20.47
2017-09-27T20:18:16.153Z,17.77
2017-09-27T20:20:43.850Z,19.70
2017-09-27T20:23:11.571Z,19.40
2017-09-27T20:25:39.224Z,19.03
2017-09-27T20:28:06.870Z,20.60
2017-09-27T20:30:34.723Z,20.70
2017-09-27T20:33:02.412Z,22.90
2017-09-27T20:35:30.547Z,20.73
2017-09-27T20:37:58.263Z,20.87
2017-09-27T20:40:25.932Z,17.90
2017-09-27T20:42:53.590Z,20.87
2017-09-27T20:45:21.335Z,18.77
2017-09-27T20:47:48.995Z,20.23
2017-09-27T20:50:17.063Z,17.60
2017-09-27T20:52:45.292Z,17.27
2017-09-27T20:55:13.039Z,15.30
2017-09-27T20:57:40.786Z,14.50
2017-09-27T21:00:08.533Z,18.03
2017-09-27T21:02:36.372Z,15.30
2017-09-27T21:05:04.748Z,16.33
2017-09-27T21:07:32.514Z,15.10
2017-09-27T21:10:00.648Z,17.40
2017-09-27T21:12:28.401Z,18.37
2017-09-27T21:14:56.158Z,17.30
2017-09-27T21:17:23.893Z,18.03
2017-09-27T21:19:51.591Z,17.03
2017-09-27T21:22:19.483Z,16.00
2017-09-27T21:24:47.152Z,19.63
2017-09-27T21:27:14.820Z,18.57
2017-09-27T21:29:42.623Z,18.70
2017-09-27T21:32:10.376Z,17.70
2017-09-27T21:34:38.122Z,17.20
2017-09-27T21:37:05.869Z,15.80
2017-09-27T21:39:33.617Z,16.53
2017-09-27T21:42:01.271Z,17.10
2017-09-27T21:44:29.111Z,15.80
2017-09-27T21:46:56.776Z,15.77
2017-09-27T21:49:24.423Z,16.53
2017-09-27T21:51:52.123Z,15.27
2017-09-27T21:54:19.770Z,13.17
2017-09-27T21:56:47.422Z,13.20
2017-09-27T21:59:15.164Z,12.13
2017-09-27T22:01:42.825Z,12.60
2017-09-27T22:04:10.476Z,14.40
2017-09-27T22:06:38.198Z,14.90
2017-09-27T22:09:05.970Z,15.53
2017-09-27T22:11:33.646Z,13.80
2017-09-27T22:14:01.775Z,11.83
2017-09-27T22:16:29.519Z,13.40
2017-09-27T22:18:57.198Z,12.10
2017-09-27T22:21:25.426Z,12.10
2017-09-27T22:23:53.086Z,11.03
2017-09-27T22:26:20.754Z,12.67
2017-09-27T22:28:48.566Z,11.83
2017-09-27T22:31:16.243Z,10.90
2017-09-27T22:33:44.313Z,11.07
2017-09-27T22:36:12.051Z,11.63
2017-09-27T22:38:39.702Z,10.80
2017-09-27T22:41:07.379Z,11.17
2017-09-27T22:43:35.103Z,11.53
2017-09-27T22:46:02.772Z,11.27
2017-09-27T22:48:30.547Z,10.00
2017-09-27T22:50:58.287Z,11.17
2017-09-27T22:53:26.097Z,10.63
2017-09-27T22:55:53.818Z,10.07
2017-09-27T22:58:22.047Z,7.33
2017-09-27T23:00:49.727Z,10.10
2017-09-27T23:03:17.443Z,10.67
2017-09-27T23:05:45.182Z,10.30
2017-09-27T23:08:12.867Z,12.30
2017-09-27T23:10:40.944Z,9.30
2017-09-27T23:13:08.698Z,10.90
2017-09-27T23:15:37.283Z,10.70
2017-09-27T23:18:05.048Z,11.00
2017-09-27T23:20:32.775Z,10.47
2017-09-27T23:23:00.443Z,10.73
2017-09-27T23:25:28.118Z,8.80
2017-09-27T23:27:56.350Z,10.30
2017-09-27T23:30:24.094Z,10.43
2017-09-27T23:32:51.771Z,9.83
2017-09-27T23:35:19.998Z,7.67
2017-09-27T23:37:47.674Z,7.00
2017-09-27T23:40:15.742Z,8.50
2017-09-27T23:42:43.546Z,10.77
2017-09-27T23:45:11.218Z,9.40
2017-09-27T23:47:39.290Z,10.20
2017-09-27T23:50:07.094Z,12.13
2017-09-27T23:52:34.842Z,11.57
2017-09-27T23:55:02.522Z,11.47
2017-09-27T23:57:30.733Z,8.93
2017-09-27T23:59:58.493Z,11.73
